Time;durP1;ratioP1;P1;durP2;ratioP2;P2;SDS_P1;SDS_P2;PMS_P1;PMS_P2;Temp;Humidity;BMP_temperature;BMP_pressure;BME280_temperature;BME280_humidity;BME280_pressure;Samples;Min_cycle;Max_cycle;Signal;HPM_P1;HPM_P2
2022/11/24 00:02:18;;;;;;;135.22;65.92;;;;;;;0.36;82.26;99551.72;2118585;83;34145;-59
2022/11/24 00:05:20;;;;;;;127.00;67.15;;;;;;;0.36;82.23;99559.16;2047964;86;29332;-60
2022/11/24 00:08:21;;;;;;;120.67;63.80;;;;;;;0.35;82.19;99549.52;2100424;83;27659;-59
2022/11/24 00:11:25;;;;;;;133.40;66.75;;;;;;;0.37;82.25;99552.99;2116294;83;29798;-60
2022/11/24 00:14:27;;;;;;;126.45;65.62;;;;;;;0.39;82.20;99560.89;2095378;84;30493;-60
2022/11/24 00:17:28;;;;;;;125.20;64.12;;;;;;;0.40;82.16;99550.30;2095401;84;32967;-67
2022/11/24 00:20:29;;;;;;;116.45;62.95;;;;;;;0.40;82.09;99547.67;2096935;84;29376;-60
2022/11/24 00:23:31;;;;;;;120.67;62.30;;;;;;;0.41;82.05;99549.88;2096215;84;27711;-59
2022/11/24 00:26:36;;;;;;;120.85;62.13;;;;;;;0.42;82.08;99563.44;2096511;84;29133;-59
2022/11/24 00:29:37;;;;;;;113.85;62.55;;;;;;;0.44;82.12;99562.95;2107057;83;31757;-61
2022/11/24 00:32:38;;;;;;;127.87;62.33;;;;;;;0.44;82.05;99566.91;2109123;83;33350;-59
2022/11/24 00:35:40;;;;;;;123.10;61.90;;;;;;;0.45;82.09;99573.48;2096426;84;29359;-59
2022/11/24 00:38:41;;;;;;;118.77;63.20;;;;;;;0.47;82.02;99571.27;2096612;84;27604;-59
2022/11/24 00:41:42;;;;;;;121.97;65.78;;;;;;;0.47;82.02;99567.32;2096420;84;29040;-59
2022/11/24 00:44:44;;;;;;;143.60;72.72;;;;;;;0.48;82.06;99572.55;2073710;85;31141;-58
2022/11/24 00:47:45;;;;;;;152.72;75.90;;;;;;;0.50;82.14;99570.75;2096598;84;34086;-59
2022/11/24 00:54:19;;;;;;;126.60;67.40;;;;;;;0.53;82.15;99573.33;2184421;81;27721;-70
2022/11/24 00:57:20;;;;;;;133.85;67.03;;;;;;;0.55;82.09;99566.27;2159753;82;28775;-71
2022/11/24 01:00:21;;;;;;;131.63;69.85;;;;;;;0.55;82.04;99564.06;2183833;80;31849;-71
2022/11/24 01:03:23;;;;;;;132.82;71.47;;;;;;;0.56;82.07;99554.83;2159963;82;33749;-71
2022/11/24 01:06:26;;;;;;;136.97;68.33;;;;;;;0.58;82.03;99567.95;2183879;81;29341;-70
2022/11/24 01:09:30;;;;;;;124.30;68.05;;;;;;;0.59;82.11;99571.87;2160142;82;27608;-73
2022/11/24 01:12:34;;;;;;;136.82;68.07;;;;;;;0.59;82.09;99569.23;2183638;81;28886;-72
2022/11/24 01:15:35;;;;;;;126.07;66.53;;;;;;;0.60;82.08;99572.28;2159962;82;31034;-72
2022/11/24 01:18:37;;;;;;;140.32;73.35;;;;;;;0.59;82.15;99567.91;2183799;81;32970;-71
2022/11/24 01:21:38;;;;;;;139.68;73.90;;;;;;;0.59;82.20;99573.65;2159996;82;29387;-72
2022/11/24 01:24:40;;;;;;;142.60;73.40;;;;;;;0.60;82.24;99574.07;2183611;81;28866;-72
2022/11/24 01:27:41;;;;;;;134.52;72.03;;;;;;;0.59;82.27;99567.91;2160105;82;29492;-73
2022/11/24 01:30:43;;;;;;;125.20;68.15;;;;;;;0.62;82.27;99568.32;2183988;81;31006;-72
2022/11/24 01:33:44;;;;;;;118.40;64.62;;;;;;;0.63;82.29;99561.27;2160316;82;33710;-73
2022/11/24 01:36:45;;;;;;;118.08;59.90;;;;;;;0.65;82.27;99559.04;2184053;81;29315;-72
2022/11/24 01:39:46;;;;;;;115.37;62.10;;;;;;;0.67;82.26;99568.22;2160437;82;27810;-72
2022/11/24 01:42:50;;;;;;;114.55;62.95;;;;;;;0.68;82.24;99577.40;2184083;81;28661;-71
2022/11/24 01:45:53;;;;;;;110.63;59.10;;;;;;;0.69;82.18;99577.81;2160418;82;31910;-71
2022/11/24 01:49:20;;;;;;;113.15;61.85;;;;;;;0.70;82.19;99580.88;2158416;81;33032;-71
2022/11/24 01:52:35;;;;;;;111.15;59.90;;;;;;;0.71;82.18;99576.48;2160309;82;28805;-71
2022/11/24 01:55:37;;;;;;;;;;;;;;;0.72;82.16;99576.91;2186805;81;27723;-71
2022/11/24 01:58:40;;;;;;;117.53;60.43;;;;;;;0.73;82.15;99575.55;2160392;82;29482;-72
2022/11/24 02:01:41;;;;;;;113.85;62.13;;;;;;;0.71;82.09;99573.85;2184051;81;31013;-72
2022/11/24 02:04:43;;;;;;;115.82;63.52;;;;;;;0.72;82.16;99577.77;2160207;82;33770;-71
2022/11/24 02:07:46;;;;;;;113.85;60.78;;;;;;;0.73;82.18;99572.91;2158032;81;29007;-71
2022/11/24 02:10:47;;;;;;;117.93;61.10;;;;;;;0.74;82.18;99575.97;2160402;82;27630;-71
2022/11/24 02:13:50;;;;;;;117.97;61.30;;;;;;;0.77;82.18;99582.08;2184160;81;28704;-72
2022/11/24 02:16:52;;;;;;;111.52;60.35;;;;;;;0.79;82.19;99581.60;2160443;82;31021;-72
2022/11/24 02:19:57;;;;;;;126.85;69.77;;;;;;;0.80;82.17;99578.91;2183982;81;32946;-72
2022/11/24 02:23:04;;;;;;;123.95;63.95;;;;;;;0.81;82.17;99581.97;2160358;82;30203;-72
2022/11/24 02:26:20;;;;;;;120.92;64.10;;;;;;;0.80;82.20;99576.28;2184461;81;27625;-72
2022/11/24 02:29:21;;;;;;;121.05;64.53;;;;;;;0.81;82.20;99574.53;2159324;81;28680;-73
2022/11/24 02:32:23;;;;;;;119.75;63.60;;;;;;;0.81;82.24;99571.89;2184112;81;31044;-73
2022/11/24 02:35:26;;;;;;;114.97;61.02;;;;;;;0.82;82.27;99570.53;2160153;82;32956;-72
2022/11/24 02:38:30;;;;;;;107.40;58.20;;;;;;;0.82;82.27;99573.63;2184194;81;29373;-72
2022/11/24 02:41:32;;;;;;;114.80;62.07;;;;;;;0.80;82.30;99566.20;2160460;82;27692;-72
2022/11/24 02:44:38;;;;;;;117.95;63.28;;;;;;;0.73;82.36;99554.45;2184011;81;28654;-72
2022/11/24 02:47:40;;;;;;;119.85;62.30;;;;;;;0.83;82.46;99564.36;2134886;82;31851;-72
2022/11/24 02:50:41;;;;;;;122.15;64.10;;;;;;;0.86;82.46;99566.05;2183913;81;32935;-72
2022/11/24 02:53:43;;;;;;;116.25;61.28;;;;;;;0.87;82.40;99558.55;2145238;82;29330;-73
2022/11/24 02:56:44;;;;;;;125.78;66.70;;;;;;;0.89;82.39;99564.67;2180452;80;27679;-73
2022/11/24 02:59:45;;;;;;;118.28;63.23;;;;;;;0.89;82.37;99570.83;2180124;81;28754;-73
2022/11/24 03:02:47;;;;;;;127.10;65.05;;;;;;;0.89;82.33;99572.14;2180571;81;30988;-74
2022/11/24 03:05:48;;;;;;;119.47;63.30;;;;;;;0.89;82.38;99579.17;2177555;81;33946;-74
2022/11/24 03:08:49;;;;;;;120.13;64.47;;;;;;;0.89;82.45;99580.05;2173602;81;29286;-74
2022/11/24 03:11:50;;;;;;;119.67;63.45;;;;;;;0.90;82.48;99587.50;2173800;81;27661;-74
2022/11/24 03:14:51;;;;;;;121.47;64.90;;;;;;;0.92;82.54;99594.94;2173567;81;28614;-72
2022/11/24 03:17:55;;;;;;;120.55;63.52;;;;;;;0.94;82.56;99589.18;2173699;81;30980;-72
2022/11/24 03:21:00;;;;;;;117.80;62.88;;;;;;;0.96;82.56;99582.54;2173688;81;33003;-73
2022/11/24 03:24:01;;;;;;;114.97;62.10;;;;;;;0.98;82.56;99587.33;2173518;81;29446;-73
2022/11/24 03:27:02;;;;;;;114.32;60.45;;;;;;;1.01;82.57;99589.91;2173672;81;27698;-73
2022/11/24 03:30:05;;;;;;;109.07;57.48;;;;;;;1.03;82.55;99592.06;2173387;81;28242;-72
2022/11/24 03:33:07;;;;;;;101.10;56.13;;;;;;;1.04;82.53;99594.66;2173580;81;31055;-73
2022/11/24 03:36:09;;;;;;;108.00;57.00;;;;;;;1.06;82.48;99594.17;2174296;81;32960;-72
2022/11/24 03:39:10;;;;;;;109.55;57.80;;;;;;;1.07;82.44;99601.66;2173619;81;29374;-72
2022/11/24 03:42:11;;;;;;;101.53;56.02;;;;;;;1.10;82.48;99600.24;2173820;81;27626;-72
2022/11/24 03:45:13;;;;;;;101.53;56.25;;;;;;;1.10;82.43;99596.28;2173799;81;28620;-71
2022/11/24 03:48:17;;;;;;;103.83;54.63;;;;;;;1.11;82.38;99598.49;2173523;81;31133;-71
2022/11/24 03:51:18;;;;;;;103.07;54.35;;;;;;;1.10;82.26;99599.39;2173511;81;32395;-71
2022/11/24 03:54:19;;;;;;;103.22;55.08;;;;;;;1.11;82.39;99607.26;2200233;80;29288;-72
2022/11/24 03:57:21;;;;;;;97.82;52.88;;;;;;;1.12;82.38;99603.72;2214289;80;27742;-71
2022/11/24 04:00:22;;;;;;;98.17;53.75;;;;;;;1.12;82.29;99606.82;2214305;80;28630;-71
2022/11/24 04:03:24;;;;;;;101.30;56.58;;;;;;;1.13;82.39;99608.56;2214257;80;31820;-72
2022/11/24 04:06:25;;;;;;;100.05;54.77;;;;;;;1.13;82.41;99609.41;2214041;80;32964;-72
2022/11/24 04:09:27;;;;;;;101.20;53.05;;;;;;;1.16;82.39;99619.05;2214318;80;29971;-73
2022/11/24 04:15:31;;;;;;;96.40;51.45;;;;;;;1.17;82.33;99609.77;2171670;81;28669;-73
2022/11/24 04:18:32;;;;;;;99.75;53.45;;;;;;;1.17;82.33;99615.48;2166668;81;31891;-71
2022/11/24 04:21:33;;;;;;;96.67;54.23;;;;;;;1.18;82.34;99616.78;2112551;84;33828;-72
2022/11/24 04:24:34;;;;;;;99.20;51.95;;;;;;;1.19;82.32;99617.64;2137798;83;29371;-72
2022/11/24 04:27:37;;;;;;;106.72;54.67;;;;;;;1.19;82.34;99613.68;2134234;83;27804;-72
2022/11/24 04:30:41;;;;;;;123.42;62.65;;;;;;;1.19;82.34;99615.88;2134049;83;29505;-71
2022/11/24 04:33:41;;;;;;;125.50;63.52;;;;;;;1.20;82.33;99612.34;2172249;81;31030;-71
2022/11/24 04:36:42;;;;;;;113.75;57.08;;;;;;;1.21;82.32;99618.48;2172071;81;33723;-71
2022/11/24 04:39:45;;;;;;;123.95;65.03;;;;;;;1.21;82.33;99623.32;2172250;81;29321;-73
2022/11/24 04:42:54;;;;;;;147.80;67.72;;;;;;;1.21;82.32;99627.28;2172140;81;27802;-72
2022/11/24 04:45:55;;;;;;;125.95;60.03;;;;;;;1.20;82.30;99631.25;2171816;81;29482;-72
2022/11/24 04:48:56;;;;;;;114.77;56.02;;;;;;;1.15;82.29;99639.27;2172229;81;30958;-71
2022/11/24 04:51:58;;;;;;;101.00;51.58;;;;;;;1.11;82.29;99644.19;2181981;80;32360;-72
2022/11/24 04:54:59;;;;;;;95.32;48.55;;;;;;;1.08;82.32;99648.20;2213690;80;29222;-72
2022/11/24 04:58:01;;;;;;;91.37;49.38;;;;;;;1.04;82.35;99649.19;2214022;80;27823;-72
2022/11/24 05:01:07;;;;;;;93.95;47.88;;;;;;;1.05;82.46;99658.38;2214001;80;28663;-71
2022/11/24 05:04:11;;;;;;;112.10;51.13;;;;;;;1.06;82.52;99664.55;2213636;80;31056;-72
2022/11/24 05:07:13;;;;;;;101.35;49.80;;;;;;;1.10;82.57;99660.06;2213631;80;33234;-71
2022/11/24 05:13:35;;;;;;;105.60;50.65;;;;;;;1.10;82.51;99660.91;2213823;80;27745;-71
2022/11/24 05:16:36;;;;;;;102.47;52.10;;;;;;;1.09;82.52;99663.59;2213856;80;28668;-71
2022/11/24 05:19:38;;;;;;;115.37;57.62;;;;;;;1.10;82.59;99674.11;2213986;80;31001;-71
2022/11/24 05:22:39;;;;;;;105.87;54.18;;;;;;;1.10;82.58;99675.42;2214028;80;32992;-72
2022/11/24 05:25:40;;;;;;;106.55;53.23;;;;;;;1.09;82.50;99681.59;2214677;80;29379;-71
2022/11/24 05:28:41;;;;;;;93.95;49.18;;;;;;;1.09;82.52;99679.42;2214038;80;27778;-70
2022/11/24 05:31:43;;;;;;;108.70;53.28;;;;;;;1.06;82.43;99679.05;2214084;80;28728;-71
2022/11/24 05:34:44;;;;;;;96.55;48.92;;;;;;;1.05;82.43;99678.16;2207354;80;31001;-71
2022/11/24 05:37:46;;;;;;;109.15;55.80;;;;;;;1.04;82.36;99684.34;2189008;80;33887;-71
2022/11/24 05:40:48;;;;;;;103.15;51.70;;;;;;;1.02;82.35;99679.54;2188992;81;29489;-71
2022/11/24 05:43:49;;;;;;;108.95;53.75;;;;;;;1.00;82.23;99682.66;2189011;81;27695;-73
2022/11/24 05:46:50;;;;;;;117.13;56.18;;;;;;;0.99;82.24;99689.29;2188961;80;29434;-72
2022/11/24 05:50:09;;;;;;;118.47;58.02;;;;;;;0.97;82.25;99688.02;2188880;80;31004;-75
2022/11/24 05:53:12;;;;;;;134.47;65.22;;;;;;;0.97;82.31;99687.13;2180412;80;29832;-71
2022/11/24 05:56:14;;;;;;;137.72;66.55;;;;;;;0.96;82.37;99690.23;2189326;80;29512;-73
2022/11/24 05:59:15;;;;;;;162.15;70.97;;;;;;;0.95;82.42;99696.41;2190209;81;27725;-71
2022/11/24 06:02:16;;;;;;;176.63;73.55;;;;;;;0.96;82.45;99699.89;2189736;81;28611;-73
2022/11/24 06:05:17;;;;;;;158.22;72.53;;;;;;;0.96;82.50;99698.14;2190145;81;30996;-72
2022/11/24 06:08:19;;;;;;;141.03;69.12;;;;;;;0.95;82.50;99706.06;2159318;82;32949;-73
2022/11/24 06:11:21;;;;;;;142.68;70.45;;;;;;;0.94;82.56;99712.23;2191474;80;29311;-71
2022/11/24 06:14:22;;;;;;;140.88;68.25;;;;;;;0.93;82.62;99710.50;2158909;82;27695;-71
2022/11/24 06:17:24;;;;;;;147.68;68.50;;;;;;;0.94;82.73;99717.52;2191650;81;28694;-72
2022/11/24 06:20:25;;;;;;;146.65;67.55;;;;;;;0.96;82.76;99717.04;2191559;81;31009;-72
2022/11/24 06:23:27;;;;;;;137.72;66.92;;;;;;;0.97;82.75;99720.09;2191545;81;32921;-72
2022/11/24 06:26:28;;;;;;;132.27;62.90;;;;;;;0.99;82.78;99725.78;2191306;81;29385;-71
2022/11/24 06:29:29;;;;;;;141.00;65.37;;;;;;;1.01;82.79;99732.33;2191734;81;27625;-72
2022/11/24 06:32:30;;;;;;;140.68;68.12;;;;;;;1.04;82.74;99747.64;2191645;81;28638;-72
2022/11/24 06:35:31;;;;;;;152.47;69.92;;;;;;;1.05;82.75;99746.74;2191524;81;31080;-71
2022/11/24 06:38:34;;;;;;;149.20;68.67;;;;;;;1.07;82.75;99754.65;2191840;81;32931;-72
2022/11/24 06:41:37;;;;;;;136.90;64.12;;;;;;;1.08;82.76;99750.22;2191709;81;29314;-72
2022/11/24 06:44:38;;;;;;;138.75;65.20;;;;;;;1.09;82.71;99761.20;2191707;81;27685;-72
2022/11/24 06:47:39;;;;;;;141.03;64.00;;;;;;;1.11;82.78;99759.41;2191417;81;29451;-73
2022/11/24 06:50:41;;;;;;;137.12;63.95;;;;;;;1.14;82.77;99765.94;2191554;81;30983;-72
2022/11/24 06:53:42;;;;;;;131.15;63.73;;;;;;;1.16;82.75;99772.06;2194890;78;33564;-72
2022/11/24 06:56:43;;;;;;;125.65;60.05;;;;;;;1.19;82.80;99778.57;2214100;80;29346;-73
2022/11/24 06:59:44;;;;;;;124.78;62.98;;;;;;;1.19;82.78;99782.09;2214382;80;27790;-72
2022/11/24 07:02:46;;;;;;;129.12;62.43;;;;;;;1.24;82.87;99786.42;2214207;80;28628;-71
2022/11/24 07:05:47;;;;;;;125.35;60.63;;;;;;;1.27;82.89;99795.14;2213841;80;31165;-73
2022/11/24 07:08:49;;;;;;;119.45;58.05;;;;;;;1.30;82.88;99803.00;2214033;80;32950;-72
2022/11/24 07:11:51;;;;;;;122.58;60.05;;;;;;;1.33;82.89;99806.88;2214247;80;30276;-73
2022/11/24 07:14:52;;;;;;;122.02;59.93;;;;;;;1.35;82.83;99810.82;2191518;80;27801;-72
2022/11/24 07:17:53;;;;;;;124.55;60.80;;;;;;;1.39;82.91;99811.63;2214150;80;28621;-70
2022/11/24 07:20:54;;;;;;;130.55;63.52;;;;;;;1.45;83.00;99815.00;2214339;80;31001;-70
2022/11/24 07:23:57;;;;;;;119.90;59.40;;;;;;;1.50;83.01;99814.91;2214228;80;33863;-71
2022/11/24 07:26:58;;;;;;;129.85;61.05;;;;;;;1.56;83.03;99818.75;2214736;80;30138;-72
2022/11/24 07:30:00;;;;;;;119.00;58.83;;;;;;;1.61;83.06;99818.65;2214230;80;27630;-71
2022/11/24 07:33:02;;;;;;;111.52;55.33;;;;;;;1.66;83.04;99819.44;2214228;80;28690;-70
2022/11/24 07:36:05;;;;;;;112.62;56.70;;;;;;;1.72;83.01;99830.31;2213819;80;31062;-70
2022/11/24 07:39:06;;;;;;;112.03;55.60;;;;;;;1.77;82.98;99828.45;2214095;80;33772;-71
2022/11/24 07:42:09;;;;;;;112.12;61.63;;;;;;;1.81;82.94;99823.06;2214213;80;29315;-71
2022/11/24 07:45:10;;;;;;;128.40;70.85;;;;;;;1.87;83.01;99831.77;2213928;80;27717;-71
2022/11/24 07:48:11;;;;;;;122.17;68.92;;;;;;;1.94;83.04;99833.36;2214287;80;28619;-70
2022/11/24 07:51:13;;;;;;;124.82;67.82;;;;;;;1.99;82.99;99834.61;2214228;80;31006;-71
2022/11/24 07:54:14;;;;;;;125.20;65.32;;;;;;;2.03;82.90;99828.33;2213928;80;32474;-71
2022/11/24 07:57:15;;;;;;;119.08;57.05;;;;;;;2.09;82.89;99834.80;2214076;80;30181;-70
2022/11/24 08:00:17;;;;;;;114.62;56.90;;;;;;;2.12;82.91;99834.28;2214189;80;27693;-70
2022/11/24 08:03:19;;;;;;;116.75;56.68;;;;;;;2.19;82.91;99830.19;2214099;80;28697;-70
2022/11/24 08:06:21;;;;;;;109.60;57.33;;;;;;;2.24;82.90;99830.93;2213453;80;31093;-69
2022/11/24 08:09:22;;;;;;;125.18;59.50;;;;;;;2.31;82.95;99826.40;2214152;80;33769;-72
2022/11/24 08:12:24;;;;;;;132.43;66.15;;;;;;;2.37;82.86;99819.63;2214100;80;29370;-71
2022/11/24 08:15:25;;;;;;;118.00;60.38;;;;;;;2.40;82.65;99825.70;2214612;80;27645;-72
2022/11/24 08:18:26;;;;;;;119.62;58.83;;;;;;;2.45;82.71;99826.05;2218533;80;28647;-73
2022/11/24 08:21:28;;;;;;;133.82;61.37;;;;;;;2.51;82.82;99824.59;2189339;81;30939;-72
2022/11/24 08:24:30;;;;;;;113.15;56.92;;;;;;;2.58;82.85;99818.23;2189300;81;33005;-72
2022/11/24 08:27:31;;;;;;;122.07;59.48;;;;;;;2.63;82.67;99818.14;2190933;81;29347;-70
2022/11/24 08:30:32;;;;;;;115.57;57.73;;;;;;;2.70;82.68;99828.97;2191844;81;27579;-73
2022/11/24 08:33:34;;;;;;;117.55;59.90;;;;;;;2.70;82.29;99825.89;2191420;81;28656;-70
2022/11/24 08:36:36;;;;;;;123.50;65.87;;;;;;;2.70;82.17;99831.17;2190736;81;31032;-72
2022/11/24 08:39:37;;;;;;;123.95;63.40;;;;;;;2.70;82.17;99828.97;2191124;81;33734;-72
2022/11/24 08:42:38;;;;;;;160.25;74.95;;;;;;;2.73;82.30;99835.51;2191252;81;29306;-71
2022/11/24 08:45:40;;;;;;;127.15;57.55;;;;;;;2.81;82.55;99837.52;2191208;81;27583;-71
2022/11/24 08:48:42;;;;;;;113.50;49.70;;;;;;;2.94;82.75;99842.03;2191119;81;29320;-72
2022/11/24 08:51:47;;;;;;;102.95;48.92;;;;;;;3.02;82.53;99848.00;2191146;81;31841;-72
2022/11/24 08:54:47;;;;;;;100.12;46.83;;;;;;;3.10;82.40;99846.92;2187539;80;33734;-72
2022/11/24 08:57:48;;;;;;;116.97;51.15;;;;;;;3.13;82.14;99855.67;2181988;80;29418;-73
2022/11/24 09:00:50;;;;;;;109.42;49.08;;;;;;;3.21;82.33;99854.58;2182051;80;27600;-72
2022/11/24 09:03:51;;;;;;;108.05;50.20;;;;;;;3.29;82.36;99868.03;2181996;81;28840;-72
2022/11/24 09:06:52;;;;;;;100.60;47.83;;;;;;;3.38;82.20;99860.77;2181535;81;31228;-72
2022/11/24 09:09:54;;;;;;;104.20;47.90;;;;;;;3.37;81.73;99867.82;2181760;81;32934;-70
2022/11/24 09:12:56;;;;;;;124.35;53.33;;;;;;;3.39;81.67;99872.63;2181805;81;30068;-71
2022/11/24 09:16:08;;;;;;;105.58;51.58;;;;;;;3.45;81.74;99868.50;2181826;81;27670;-70
2022/11/24 09:19:09;;;;;;;115.62;53.48;;;;;;;3.48;81.42;99865.73;2183107;81;28702;-73
2022/11/24 09:22:11;;;;;;;107.52;51.20;;;;;;;3.53;81.45;99862.98;2183652;81;31138;-71
2022/11/24 09:25:12;;;;;;;123.30;54.48;;;;;;;3.58;81.53;99866.36;2183313;81;33736;-69
2022/11/24 09:28:13;;;;;;;118.47;52.45;;;;;;;3.65;81.84;99865.28;2180040;81;30013;-75
2022/11/24 09:31:16;;;;;;;119.13;53.63;;;;;;;3.78;81.92;99872.44;2183012;81;27646;-73
2022/11/24 09:34:18;;;;;;;116.28;51.98;;;;;;;3.89;81.87;99875.22;2160010;82;28649;-69
2022/11/24 09:37:19;;;;;;;119.08;51.95;;;;;;;3.95;81.90;99877.23;2158187;82;31652;-74
2022/11/24 09:40:22;;;;;;;119.08;52.35;;;;;;;4.06;81.73;99886.20;2142253;83;32943;-71
2022/11/24 09:43:47;;;;;;;115.70;51.50;;;;;;;4.10;81.50;99882.55;2157878;82;29489;-72
2022/11/24 09:47:29;;;;;;;119.17;51.98;;;;;;;4.11;81.25;99880.75;2157803;81;37153;-71
2022/11/24 09:50:36;;;;;;;114.80;51.58;;;;;;;4.18;81.31;99874.81;2157661;82;29694;-72
2022/11/24 09:53:54;;;;;;;107.65;47.58;;;;;;;4.24;81.38;99884.77;2140530;83;31771;-69
2022/11/24 09:56:59;;;;;;;104.12;49.55;;;;;;;4.31;81.14;99877.49;2214518;80;33180;-70
2022/11/24 10:00:03;;;;;;;;;;;;;;;4.37;81.17;99879.97;2216887;80;30592;-72
2022/11/24 10:03:07;;;;;;;111.70;50.97;;;;;;;4.45;80.84;99873.57;2206540;80;27789;-71
2022/11/24 10:06:26;;;;;;;107.17;49.73;;;;;;;4.49;80.82;99872.53;2213482;80;28808;-72
2022/11/24 10:09:57;;;;;;;113.52;51.48;;;;;;;4.49;80.47;99882.70;2213572;80;31069;-72
2022/11/24 10:13:24;;;;;;;116.47;53.38;;;;;;;4.49;80.18;99878.72;2213779;80;33416;-75
2022/11/24 10:16:42;;;;;;;110.65;51.80;;;;;;;4.52;80.31;99877.31;2217214;80;29317;-73
2022/11/24 10:19:55;;;;;;;107.50;50.48;;;;;;;4.67;80.60;99873.75;2189422;81;27694;-76
2022/11/24 10:23:22;;;;;;;117.37;52.65;;;;;;;4.78;80.56;99871.61;2189205;80;28646;-73
2022/11/24 10:26:35;;;;;;;107.50;51.90;;;;;;;4.88;80.43;99873.50;2189225;79;31057;-73
2022/11/24 10:29:41;;;;;;;112.37;54.45;;;;;;;4.93;80.13;99870.25;2131824;83;34126;-74
2022/11/24 10:32:47;;;;;;;116.10;53.90;;;;;;;5.05;80.19;99876.05;2219992;80;29391;-69
2022/11/24 10:35:55;;;;;;;113.95;56.48;;;;;;;5.09;79.59;99862.62;2211949;80;27674;-70
2022/11/24 10:39:02;;;;;;;110.12;52.10;;;;;;;5.11;79.83;99870.08;2213379;80;29386;-72
2022/11/24 10:42:15;;;;;;;116.57;55.80;;;;;;;5.17;79.83;99867.66;2212930;80;31813;-73
2022/11/24 10:45:21;;;;;;;114.05;54.03;;;;;;;5.27;79.93;99870.87;2193790;79;33611;-70
2022/11/24 10:48:28;;;;;;;114.00;55.50;;;;;;;5.37;79.59;99868.77;2192167;79;29376;-70
2022/11/24 10:51:49;;;;;;;109.45;54.15;;;;;;;5.40;79.42;99872.17;2176388;81;27719;-68
2022/11/24 10:54:59;;;;;;;100.60;51.65;;;;;;;5.44;79.24;99873.80;2213267;80;28658;-69
2022/11/24 10:58:16;;;;;;;105.87;53.05;;;;;;;5.47;78.98;99871.48;2216644;80;31028;-69
2022/11/24 11:01:22;;;;;;;104.32;54.25;;;;;;;5.47;78.78;99873.70;2225273;79;32976;-66
2022/11/24 11:04:33;;;;;;;107.12;55.30;;;;;;;5.48;78.75;99866.14;2184714;81;29327;-66
2022/11/24 11:07:35;;;;;;;110.55;55.38;;;;;;;5.51;78.74;99869.14;2157396;81;27623;-69
2022/11/24 11:10:36;;;;;;;97.67;52.78;;;;;;;5.55;78.60;99860.59;2222152;80;29985;-71
2022/11/24 11:13:37;;;;;;;96.90;52.40;;;;;;;5.56;78.59;99861.88;2221731;79;31079;-72
2022/11/24 11:16:51;;;;;;;99.42;52.73;;;;;;;5.64;78.98;99862.93;2222070;80;33028;-70
2022/11/24 11:19:54;;;;;;;100.82;53.50;;;;;;;5.69;78.77;99870.28;2222129;79;31068;-72
2022/11/24 11:22:59;;;;;;;109.17;51.88;;;;;;;5.77;78.75;99872.19;2166994;81;27742;-70
2022/11/24 11:26:29;;;;;;;98.25;52.67;;;;;;;5.83;78.51;99872.89;2191103;81;29357;-69
2022/11/24 11:29:31;;;;;;;98.47;52.83;;;;;;;5.86;78.45;99874.97;2191015;81;31824;-70
2022/11/24 11:32:32;;;;;;;109.57;55.03;;;;;;;5.90;78.09;99871.72;2223756;79;32984;-70
2022/11/24 11:35:34;;;;;;;102.80;55.38;;;;;;;5.93;78.20;99869.84;2224033;80;29348;-73
2022/11/24 11:38:38;;;;;;;112.35;57.00;;;;;;;5.97;78.20;99875.02;2228913;78;27704;-71
2022/11/24 11:41:42;;;;;;;104.97;54.75;;;;;;;5.97;77.87;99875.89;2251417;78;28083;-71
2022/11/24 11:44:57;;;;;;;110.63;57.93;;;;;;;5.90;77.27;99878.37;2224265;79;31650;-72
2022/11/24 11:48:04;;;;;;;108.00;55.10;;;;;;;5.87;77.27;99876.70;2222647;78;32952;-64
2022/11/24 11:51:32;;;;;;;107.10;53.98;;;;;;;5.90;77.43;99878.37;2224768;79;30088;-65
2022/11/24 11:55:12;;;;;;;109.32;56.13;;;;;;;5.96;77.50;99875.97;2227347;79;27638;-66
2022/11/24 11:59:11;;;;;;;108.17;57.43;;;;;;;6.01;77.24;99870.91;2221167;79;29873;-67
2022/11/24 12:02:39;;;;;;;105.67;55.43;;;;;;;6.10;77.33;99875.02;2233517;79;31822;-65
2022/11/24 12:06:02;;;;;;;109.75;57.45;;;;;;;6.16;77.17;99874.76;2033643;86;33017;-65
2022/11/24 12:09:34;;;;;;;108.47;56.58;;;;;;;6.19;76.86;99878.64;2032849;86;29386;-66
2022/11/24 12:13:05;;;;;;;104.92;56.45;;;;;;;6.19;76.58;99873.31;2024472;86;28386;-64
2022/11/24 12:16:21;;;;;;;111.77;58.63;;;;;;;6.18;76.34;99875.57;2030675;87;30800;-63
2022/11/24 12:19:41;;;;;;;107.75;56.77;;;;;;;6.13;76.17;99875.34;2024145;86;31076;-63
2022/11/24 12:23:25;;;;;;;114.80;59.70;;;;;;;6.06;76.07;99874.23;2028439;86;33970;-64
2022/11/24 12:26:55;;;;;;;103.30;54.15;;;;;;;6.04;76.24;99871.24;1997841;88;29335;-63
2022/11/24 12:30:10;;;;;;;106.63;56.55;;;;;;;6.01;75.78;99866.92;1999448;88;27766;-65
2022/11/24 12:33:41;;;;;;;111.88;53.70;;;;;;;5.97;76.12;99875.89;2000201;88;27742;-65
2022/11/24 12:37:00;;;;;;;110.08;57.38;;;;;;;6.01;75.86;99881.55;2000281;87;31082;-63
2022/11/24 12:40:18;;;;;;;112.62;57.98;;;;;;;5.85;75.50;99880.35;1976495;90;33792;-65
2022/11/24 12:43:38;;;;;;;148.85;84.62;;;;;;;5.71;75.54;99880.84;2116684;81;29354;-62
2022/11/24 12:46:54;;;;;;;160.65;95.87;;;;;;;5.59;75.55;99872.41;2147765;81;27622;-65
2022/11/24 12:50:13;;;;;;;114.47;60.23;;;;;;;5.56;75.96;99879.59;2135844;81;30074;-64
2022/11/24 12:53:22;;;;;;;113.92;57.75;;;;;;;5.57;76.18;99875.58;2143363;81;31016;-65
2022/11/24 12:56:54;;;;;;;116.10;61.85;;;;;;;5.59;76.22;99879.05;2116289;82;33882;-63
2022/11/24 13:00:05;;;;;;;122.05;64.05;;;;;;;5.63;76.14;99885.11;2161542;81;30701;-62
2022/11/24 13:03:30;;;;;;;117.42;59.13;;;;;;;5.65;76.23;99883.72;2155288;81;28085;-63
2022/11/24 13:07:04;;;;;;;117.15;59.00;;;;;;;5.66;76.12;99892.98;2157220;81;29853;-63
2022/11/24 13:10:37;;;;;;;111.35;56.55;;;;;;;5.67;76.14;99890.73;2134183;81;31192;-63
2022/11/24 13:14:00;;;;;;;121.28;61.15;;;;;;;5.71;76.22;99900.30;2107659;84;33411;-63
2022/11/24 13:17:06;;;;;;;116.50;58.78;;;;;;;5.68;75.91;99896.89;2169599;80;30045;-63
2022/11/24 13:20:15;;;;;;;118.10;60.67;;;;;;;5.65;75.84;99904.97;2160849;80;27769;-64
2022/11/24 13:23:24;;;;;;;124.15;58.85;;;;;;;5.59;75.78;99905.62;2158531;81;28728;-64
2022/11/24 13:26:47;;;;;;;116.42;60.90;;;;;;;5.54;75.73;99907.56;2168448;81;32283;-63
2022/11/24 13:29:50;;;;;;;124.97;59.73;;;;;;;5.52;75.96;99919.17;2151423;81;34338;-65
2022/11/24 13:33:12;;;;;;;119.05;60.38;;;;;;;5.52;75.93;99916.52;2164302;81;30525;-63
2022/11/24 13:36:28;;;;;;;113.75;59.20;;;;;;;5.51;75.91;99913.45;2141731;81;27803;-65
2022/11/24 13:39:52;;;;;;;117.90;60.92;;;;;;;5.51;76.02;99910.31;2161180;81;28669;-66
2022/11/24 13:43:01;;;;;;;120.60;60.12;;;;;;;5.51;75.99;99907.66;2184668;80;31075;-66
2022/11/24 13:46:03;;;;;;;118.80;59.50;;;;;;;5.50;76.02;99908.58;2197599;80;33763;-64
2022/11/24 13:49:10;;;;;;;124.33;63.58;;;;;;;5.51;76.04;99915.63;2166232;81;30248;-64
2022/11/24 13:52:40;;;;;;;146.82;78.17;;;;;;;5.50;75.82;99916.55;2229233;78;28311;-62
2022/11/24 13:56:04;;;;;;;125.87;65.08;;;;;;;5.36;75.45;99922.81;2230519;78;29303;-63
2022/11/24 13:59:23;;;;;;;130.20;64.55;;;;;;;5.29;75.84;99925.70;2177701;80;31235;-64
2022/11/24 14:02:25;;;;;;;130.78;66.45;;;;;;;5.26;75.88;99920.48;2143682;81;33744;-64
2022/11/24 14:05:35;;;;;;;126.40;62.45;;;;;;;5.24;76.03;99920.98;2187981;80;29689;-64
2022/11/24 14:08:37;;;;;;;124.80;59.90;;;;;;;5.25;76.11;99926.70;2181416;80;27625;-64
2022/11/24 14:11:40;;;;;;;116.97;61.28;;;;;;;5.25;76.10;99933.79;2196279;80;28785;-65
2022/11/24 14:14:43;;;;;;;122.05;60.17;;;;;;;5.24;76.00;99940.91;2185095;80;31370;-64
2022/11/24 14:17:44;;;;;;;122.28;60.30;;;;;;;5.20;75.85;99941.92;2143560;81;32948;-64
2022/11/24 14:20:46;;;;;;;128.15;61.65;;;;;;;5.16;75.95;99947.80;2171008;80;29380;-65
2022/11/24 14:23:51;;;;;;;119.62;61.68;;;;;;;5.12;76.00;99940.84;2185742;80;27725;-65
2022/11/24 14:26:53;;;;;;;112.95;59.15;;;;;;;5.12;76.10;99944.83;2174254;80;28660;-64
2022/11/24 14:30:08;;;;;;;121.57;62.08;;;;;;;5.06;75.82;99944.16;2156593;81;31846;-64